GCC Virtual Airport Information Service

Luxor International Airport

ICAO: HELX Country: EG
Latitude: 25.671 Longitude: 32.7066
Latest Arrival : MSR66 (HECA-HELX) Latest Departure : (-)


WX CaptureLIVE
Data provided by noaa.gov | Fetched at 07:50:23

METAR : HELX 270700Z 00000KT 2000 HZ NSC 14/05 Q1015 NOSIG

TAF : HELX 270500Z 2706/2812 36006KT CAVOK TEMPO 2706/2710 VRB03KT 3000 HZ NSC


Runway Data for HELX
Data provided by openaviationdata.com

Runway ID Mag Var Hdg Length Elevation Surface ILS Freq ILS Id ILS Slope
2 3 19° 9865 ft 294 ft Asphalt -- -- --
20 3 199° 9865 ft 294 ft Asphalt 111.1 XIL 3

Luxor International Airport, EG
Use only for reference purposes



Not for navigational purposes.